Mitsukawa Maru — JD2495 — position and weather

sailwx.info

Track history (hours):
 
Tides and Currents Weather Stations Pressure Air Temp Water Temp Dewpoint Dewpoint Depression Visibility Wind Speed Wind Dir Waves Ship Positions

Mitsukawa Maru

Last reported at 2016-Aug-05 15:27 UTC. Time now 2016-Aug-27 02:57 UTC.
Position N 34°60' E 139°31'.
Warning: this ship's position is 21 days out of date.

Length 105 m; draft 4.7 m.

Type: Cargo ship. MMSI: 431000326.

Date/timePositionNaut miles runAvg speedWind from/ knotsBaromVisibWave heightAir tempDewpointWater temp
2016-Aug-05 15:27N 34°60' E 139°31'1213.2
2016-Aug-05 14:32N 35°08' E 139°42'1111.0
2016-Aug-05 13:33N 35°18' E 139°44'1110.8
2016-Aug-05 12:33N 35°28' E 139°49'1312.5
2016-Aug-05 11:33N 35°35' E 140°02'4 3.7
2016-Aug-05 10:33N 35°34' E 140°07'0 0.0
2016-Aug-05 09:31N 35°34' E 140°07'0 0.0
2016-Aug-05 08:31N 35°34' E 140°07'0 0.0
2016-Aug-05 07:31N 35°34' E 140°07'0 0.0
2016-Aug-05 06:31N 35°34' E 140°07'0 0.0
2016-Aug-05 04:28N 35°34' E 140°07'0 0.0
2016-Aug-05 03:28N 35°34' E 140°07'0 0.1
2016-Aug-05 02:31N 35°34' E 140°07'0 0.1
2016-Aug-05 01:31N 35°34' E 140°07'0 0.0
2016-Aug-05 00:28N 35°34' E 140°07'0 0.1
2016-Aug-04 23:31N 35°34' E 140°07'0 0.2
2016-Aug-04 22:33N 35°35' E 140°07'6 6.2
2016-Aug-04 21:33N 35°34' E 139°59'0 0.4
2016-Aug-04 20:30N 35°34' E 139°59'0 0.1
2016-Aug-04 19:33N 35°34' E 139°59'0 0.0
2016-Aug-04 18:33N 35°34' E 139°59'0 0.0
2016-Aug-04 17:33N 35°34' E 139°59'0 0.0
2016-Aug-04 16:33N 35°34' E 139°59'6 6.2
2016-Aug-04 15:34N 35°30' E 139°54'1211.9
2016-Aug-04 14:34N 35°21' E 139°45'1111.0
2016-Aug-04 13:34N 35°10' E 139°46'1411.9
2016-Aug-04 12:22N 34°59' E 139°35'235 5.2
2016-Aug-02 15:33N 34°07' E 134°57'1514.4
2016-Aug-02 14:32N 34°22' E 134°59'1313.7
2016-Aug-02 13:34N 34°35' E 135°02'  
Track history (hours):
 
Tides and Currents Weather Stations Pressure Air Temp Water Temp Dewpoint Dewpoint Depression Visibility Wind Speed Wind Dir Waves Ship Positions

Mitsukawa Maru

Last reported at 2016-Aug-05 15:27 UTC. Time now 2016-Aug-27 02:57 UTC.
Position N 34°60' E 139°31'.
Warning: this ship's position is 21 days out of date.

Length 105 m; draft 4.7 m.

Type: Cargo ship. MMSI: 431000326.

Date/timePositionNaut miles runAvg speedWind from/ knotsBaromVisibWave heightAir tempDewpointWater temp
2016-Aug-05 15:27N 34°60' E 139°31'1213.2
2016-Aug-05 14:32N 35°08' E 139°42'1111.0
2016-Aug-05 13:33N 35°18' E 139°44'1110.8
2016-Aug-05 12:33N 35°28' E 139°49'1312.5
2016-Aug-05 11:33N 35°35' E 140°02'4 3.7
2016-Aug-05 10:33N 35°34' E 140°07'0 0.0
2016-Aug-05 09:31N 35°34' E 140°07'0 0.0
2016-Aug-05 08:31N 35°34' E 140°07'0 0.0
2016-Aug-05 07:31N 35°34' E 140°07'0 0.0
2016-Aug-05 06:31N 35°34' E 140°07'0 0.0
2016-Aug-05 04:28N 35°34' E 140°07'0 0.0
2016-Aug-05 03:28N 35°34' E 140°07'0 0.1
2016-Aug-05 02:31N 35°34' E 140°07'0 0.1
2016-Aug-05 01:31N 35°34' E 140°07'0 0.0
2016-Aug-05 00:28N 35°34' E 140°07'0 0.1
2016-Aug-04 23:31N 35°34' E 140°07'0 0.2
2016-Aug-04 22:33N 35°35' E 140°07'6 6.2
2016-Aug-04 21:33N 35°34' E 139°59'0 0.4
2016-Aug-04 20:30N 35°34' E 139°59'0 0.1
2016-Aug-04 19:33N 35°34' E 139°59'0 0.0
2016-Aug-04 18:33N 35°34' E 139°59'0 0.0
2016-Aug-04 17:33N 35°34' E 139°59'0 0.0
2016-Aug-04 16:33N 35°34' E 139°59'6 6.2
2016-Aug-04 15:34N 35°30' E 139°54'1211.9
2016-Aug-04 14:34N 35°21' E 139°45'1111.0
2016-Aug-04 13:34N 35°10' E 139°46'1411.9
2016-Aug-04 12:22N 34°59' E 139°35'235 5.2
2016-Aug-02 15:33N 34°07' E 134°57'1514.4
2016-Aug-02 14:32N 34°22' E 134°59'1313.7
2016-Aug-02 13:34N 34°35' E 135°02'  

Dump ship's entire track history